Time;durP1;ratioP1;P1;durP2;ratioP2;P2;SDS_P1;SDS_P2;PMS_P1;PMS_P2;Temp;Humidity;BMP_temperature;BMP_pressure;BME280_temperature;BME280_humidity;BME280_pressure;Samples;Min_cycle;Max_cycle;Signal;HPM_P1;HPM_P2
2023/09/27 00:01:04;;;;;;;12.10;5.60;;;16.10;99.90;;;;;;7292041;19;20553;-87
2023/09/27 00:03:30;;;;;;;9.33;5.33;;;16.00;99.90;;;;;;7292385;19;20193;-87
2023/09/27 00:05:57;;;;;;;13.00;5.70;;;16.00;99.90;;;;;;7291217;19;20185;-87
2023/09/27 00:08:22;;;;;;;10.00;5.50;;;16.00;99.90;;;;;;7292815;19;20260;-87
2023/09/27 00:10:48;;;;;;;10.13;5.10;;;16.00;99.90;;;;;;7291877;19;20632;-87
2023/09/27 00:13:14;;;;;;;10.97;5.50;;;15.90;99.90;;;;;;7291529;19;20273;-87
2023/09/27 00:15:40;;;;;;;11.63;5.67;;;15.90;99.90;;;;;;7314734;19;20173;-88
2023/09/27 00:18:06;;;;;;;9.90;5.07;;;15.80;99.90;;;;;;7292289;19;20191;-86
2023/09/27 00:20:32;;;;;;;11.57;5.20;;;15.70;99.90;;;;;;7296668;19;20178;-86
2023/09/27 00:22:58;;;;;;;11.67;5.63;;;15.70;99.90;;;;;;7308354;19;20195;-86
2023/09/27 00:25:24;;;;;;;13.60;6.47;;;15.70;99.90;;;;;;7307838;19;20240;-87
2023/09/27 00:27:49;;;;;;;14.07;6.07;;;15.80;99.90;;;;;;7308491;19;20230;-86
2023/09/27 00:30:16;;;;;;;13.93;5.57;;;15.90;99.90;;;;;;7308706;19;20192;-85
2023/09/27 00:32:46;;;;;;;11.00;5.60;;;15.90;99.90;;;;;;7316156;19;20189;-85
2023/09/27 00:35:21;;;;;;;10.37;5.70;;;15.80;99.90;;;;;;7298365;19;20204;-88
2023/09/27 00:37:49;;;;;;;10.67;5.87;;;15.80;99.90;;;;;;7296537;19;20190;-87
2023/09/27 00:40:18;;;;;;;11.07;5.47;;;15.60;99.90;;;;;;7292834;19;20228;-86
2023/09/27 00:42:44;;;;;;;10.73;5.63;;;15.50;99.90;;;;;;7292027;19;20269;-87
2023/09/27 00:45:10;;;;;;;10.13;5.53;;;15.40;99.90;;;;;;7314062;19;20188;-87
2023/09/27 00:47:47;;;;;;;12.33;5.73;;;15.20;99.90;;;;;;7292923;19;20186;-86
2023/09/27 00:50:26;;;;;;;11.70;6.07;;;15.30;99.90;;;;;;7187739;19;2004493;-87
2023/09/27 00:52:54;;;;;;;13.23;5.77;;;15.20;99.90;;;;;;7289378;19;20256;-87
2023/09/27 00:55:20;;;;;;;11.53;5.77;;;15.20;99.90;;;;;;7290243;19;20215;-87
2023/09/27 00:57:49;;;;;;;12.37;5.80;;;15.20;99.90;;;;;;7289983;19;20284;-86
2023/09/27 01:00:15;;;;;;;12.43;5.10;;;15.30;99.90;;;;;;7291247;19;20196;-87
2023/09/27 01:02:41;;;;;;;11.47;5.13;;;15.30;99.90;;;;;;7311834;19;20196;-87
2023/09/27 01:05:10;;;;;;;16.07;5.33;;;15.30;99.90;;;;;;7290717;19;20212;-87
2023/09/27 01:07:40;;;;;;;14.43;5.13;;;15.20;99.90;;;;;;7292203;19;20203;-87
2023/09/27 01:10:09;;;;;;;9.27;4.97;;;15.20;99.90;;;;;;7291292;19;20188;-88
2023/09/27 01:12:37;;;;;;;9.47;4.97;;;15.20;99.90;;;;;;7289768;19;20196;-87
2023/09/27 01:15:03;;;;;;;10.77;4.57;;;15.20;99.90;;;;;;7289269;19;20291;-87
2023/09/27 01:17:29;;;;;;;9.77;4.80;;;15.20;99.90;;;;;;7290480;19;20193;-87
2023/09/27 01:19:55;;;;;;;8.50;4.73;;;15.20;99.90;;;;;;7289468;19;20191;-86
2023/09/27 01:22:21;;;;;;;12.30;5.53;;;15.20;99.90;;;;;;7289510;19;20190;-88
2023/09/27 01:24:50;;;;;;;8.73;5.03;;;15.20;99.90;;;;;;7288831;19;20252;-88
2023/09/27 01:27:18;;;;;;;11.50;5.40;;;15.20;99.90;;;;;;7286831;19;20255;-87
2023/09/27 01:29:43;;;;;;;10.40;5.53;;;15.30;99.90;;;;;;7289080;19;20186;-87
2023/09/27 01:32:09;;;;;;;10.63;5.37;;;15.30;99.90;;;;;;7310931;19;20621;-87
2023/09/27 01:34:37;;;;;;;11.40;5.63;;;15.30;99.90;;;;;;7288655;19;20196;-87
2023/09/27 01:37:03;;;;;;;13.00;5.33;;;15.40;99.90;;;;;;7289302;19;20202;-87
2023/09/27 01:39:30;;;;;;;11.10;5.40;;;15.40;99.90;;;;;;7289043;19;20190;-87
2023/09/27 01:41:56;;;;;;;9.03;5.13;;;15.30;99.90;;;;;;7289772;19;20204;-88
2023/09/27 01:44:22;;;;;;;11.13;5.50;;;15.10;99.90;;;;;;7291044;19;20260;-87
2023/09/27 01:46:48;;;;;;;11.47;5.57;;;15.20;99.90;;;;;;7289182;19;20270;-87
2023/09/27 01:49:14;;;;;;;11.37;5.97;;;15.20;99.90;;;;;;7287887;19;20223;-87
2023/09/27 01:51:39;;;;;;;12.50;6.17;;;15.30;99.90;;;;;;7310783;19;20188;-87
2023/09/27 01:54:08;;;;;;;13.83;6.00;;;15.30;99.90;;;;;;7289045;19;20192;-87
2023/09/27 01:56:35;;;;;;;14.90;6.17;;;15.20;99.90;;;;;;7289633;19;20190;-87
2023/09/27 01:59:00;;;;;;;13.97;6.57;;;15.20;99.90;;;;;;7288523;19;24957;-86
2023/09/27 02:01:29;;;;;;;11.77;6.23;;;15.20;99.90;;;;;;7287309;19;20706;-86
2023/09/27 02:03:55;;;;;;;11.70;6.03;;;15.10;99.90;;;;;;7289640;19;20200;-86
2023/09/27 02:06:25;;;;;;;12.03;6.50;;;15.10;99.90;;;;;;7290437;19;20196;-86
2023/09/27 02:08:51;;;;;;;11.93;6.53;;;15.10;99.90;;;;;;7294581;19;20187;-86
2023/09/27 02:11:25;;;;;;;12.40;6.70;;;15.10;99.90;;;;;;7306618;19;20214;-87
2023/09/27 02:13:51;;;;;;;9.87;6.43;;;15.00;99.90;;;;;;7306311;19;20208;-87
2023/09/27 02:16:17;;;;;;;10.47;6.53;;;15.00;99.90;;;;;;7317201;19;20203;-86
2023/09/27 02:18:42;;;;;;;11.90;6.40;;;15.10;99.90;;;;;;7322046;19;20191;-86
2023/09/27 02:21:09;;;;;;;11.40;5.27;;;15.00;99.90;;;;;;7340713;19;20194;-87
2023/09/27 02:23:37;;;;;;;9.93;5.10;;;14.90;99.90;;;;;;7315625;19;20194;-87
2023/09/27 02:26:06;;;;;;;11.57;5.40;;;14.90;99.90;;;;;;7310448;19;20207;-87
2023/09/27 02:28:32;;;;;;;12.37;5.53;;;14.90;99.90;;;;;;7314663;19;20184;-87
2023/09/27 02:31:09;;;;;;;10.90;5.27;;;14.90;99.90;;;;;;7318938;19;20192;-87
2023/09/27 02:33:38;;;;;;;12.83;4.90;;;14.90;99.90;;;;;;7311011;19;20200;-87
2023/09/27 02:36:05;;;;;;;10.13;5.30;;;15.00;99.90;;;;;;7305533;19;20200;-87
2023/09/27 02:38:35;;;;;;;10.73;5.13;;;15.20;99.90;;;;;;7289020;19;20538;-87
2023/09/27 02:41:02;;;;;;;12.77;5.43;;;15.20;99.90;;;;;;7289720;19;20243;-87
2023/09/27 02:43:31;;;;;;;11.37;4.90;;;15.10;99.90;;;;;;7288507;19;20209;-88
2023/09/27 02:45:58;;;;;;;11.57;5.20;;;15.10;99.90;;;;;;7288179;19;20196;-87
2023/09/27 02:48:26;;;;;;;12.77;5.20;;;15.10;99.90;;;;;;7288547;19;20570;-87
2023/09/27 02:51:04;;;;;;;9.63;5.13;;;15.10;99.90;;;;;;7287518;19;20195;-87
2023/09/27 02:53:29;;;;;;;13.20;5.53;;;15.10;99.90;;;;;;7287820;19;20194;-87
2023/09/27 02:55:55;;;;;;;11.60;5.83;;;15.10;99.90;;;;;;7288453;19;20679;-87
2023/09/27 02:58:25;;;;;;;10.73;6.27;;;15.10;99.90;;;;;;7286783;19;20198;-87
2023/09/27 03:00:52;;;;;;;13.40;6.30;;;15.20;99.90;;;;;;7286958;19;20196;-87
2023/09/27 03:03:19;;;;;;;13.23;6.50;;;15.10;99.90;;;;;;7286845;19;20207;-87
2023/09/27 03:05:49;;;;;;;13.17;6.27;;;15.00;99.90;;;;;;7285774;19;20182;-87
2023/09/27 03:08:15;;;;;;;10.20;5.83;;;14.90;99.90;;;;;;7286451;19;20191;-87
2023/09/27 03:10:42;;;;;;;11.37;6.37;;;14.90;99.90;;;;;;7308165;19;20202;-88
2023/09/27 03:13:09;;;;;;;15.43;6.07;;;14.90;99.90;;;;;;7286302;19;20195;-87
2023/09/27 03:15:35;;;;;;;11.73;5.80;;;14.90;99.90;;;;;;7295396;19;20173;-88
2023/09/27 03:18:02;;;;;;;13.93;6.20;;;14.80;99.90;;;;;;7294109;19;20235;-87
2023/09/27 03:20:31;;;;;;;10.07;5.43;;;14.80;99.90;;;;;;7292855;19;20186;-87
2023/09/27 03:22:57;;;;;;;11.27;5.83;;;14.80;99.90;;;;;;7294571;19;20190;-87
2023/09/27 03:25:23;;;;;;;9.17;5.40;;;14.90;99.90;;;;;;7292299;19;20191;-88
2023/09/27 03:27:51;;;;;;;12.03;5.87;;;14.90;99.90;;;;;;7292397;19;20655;-88
2023/09/27 03:30:17;;;;;;;15.27;6.47;;;15.00;99.90;;;;;;7292427;19;20345;-87
2023/09/27 03:32:44;;;;;;;11.00;5.47;;;15.10;99.90;;;;;;7293309;19;20187;-87
2023/09/27 03:35:10;;;;;;;11.50;5.73;;;15.20;99.90;;;;;;7316980;19;20181;-87
2023/09/27 03:37:36;;;;;;;12.43;6.23;;;15.10;99.90;;;;;;7294800;19;20659;-87
2023/09/27 03:40:04;;;;;;;11.57;6.47;;;15.10;99.90;;;;;;7292600;19;20189;-87
2023/09/27 03:42:30;;;;;;;14.93;6.67;;;15.20;99.90;;;;;;7292338;19;20192;-88
2023/09/27 03:44:55;;;;;;;14.77;6.77;;;15.20;99.90;;;;;;7292078;19;20232;-87
2023/09/27 03:47:22;;;;;;;12.57;7.03;;;15.10;99.90;;;;;;7291690;19;20215;-87
2023/09/27 03:49:48;;;;;;;13.87;6.70;;;15.10;99.90;;;;;;7292393;19;20188;-86
2023/09/27 03:52:13;;;;;;;15.27;7.00;;;15.00;99.90;;;;;;7291596;19;20198;-87
2023/09/27 03:54:40;;;;;;;12.10;6.50;;;14.90;99.90;;;;;;7314137;19;20286;-87
2023/09/27 03:57:06;;;;;;;11.57;6.23;;;14.90;99.90;;;;;;7292581;19;20185;-87
2023/09/27 03:59:33;;;;;;;12.27;6.40;;;14.90;99.90;;;;;;7292579;19;20189;-88
2023/09/27 04:01:59;;;;;;;12.70;6.10;;;15.00;99.90;;;;;;7290930;19;20272;-88
2023/09/27 04:04:25;;;;;;;13.57;6.47;;;15.10;99.90;;;;;;7291126;19;20199;-86
2023/09/27 04:06:51;;;;;;;13.47;6.13;;;15.10;99.90;;;;;;7291267;19;20216;-88
2023/09/27 04:09:17;;;;;;;12.87;6.67;;;15.10;99.90;;;;;;7293147;19;20196;-88
2023/09/27 04:11:43;;;;;;;12.50;6.90;;;15.10;99.90;;;;;;7293664;19;20184;-87
2023/09/27 04:14:09;;;;;;;12.60;6.37;;;15.20;99.90;;;;;;7312929;19;20280;-88
2023/09/27 04:16:35;;;;;;;14.63;5.97;;;15.20;99.90;;;;;;7291705;19;20190;-87
2023/09/27 04:19:00;;;;;;;14.37;7.13;;;15.10;99.90;;;;;;7290750;19;20203;-87
2023/09/27 04:21:30;;;;;;;13.63;6.97;;;15.10;99.90;;;;;;7290914;19;20204;-88
2023/09/27 04:23:57;;;;;;;13.13;6.33;;;15.10;99.90;;;;;;7291105;19;20218;-87
2023/09/27 04:26:26;;;;;;;15.27;7.10;;;15.10;99.90;;;;;;7291514;19;20216;-88
2023/09/27 04:28:53;;;;;;;12.30;6.93;;;15.20;99.90;;;;;;7291607;19;20192;-88
2023/09/27 04:31:19;;;;;;;12.33;7.27;;;15.20;99.90;;;;;;7290875;19;20180;-87
2023/09/27 04:33:47;;;;;;;13.03;6.83;;;15.10;99.90;;;;;;7291863;19;20221;-88
2023/09/27 04:36:17;;;;;;;16.03;7.80;;;14.90;99.90;;;;;;7293688;19;20185;-87
2023/09/27 04:38:49;;;;;;;12.53;7.10;;;14.90;99.90;;;;;;7293419;19;20186;-88
2023/09/27 04:41:17;;;;;;;13.07;7.10;;;14.80;99.90;;;;;;7291114;19;20205;-87
2023/09/27 04:43:44;;;;;;;12.03;7.10;;;14.70;99.90;;;;;;7294238;19;20196;-87
2023/09/27 04:46:17;;;;;;;14.17;7.23;;;14.70;99.90;;;;;;7312451;19;20178;-88
2023/09/27 04:48:45;;;;;;;12.73;6.43;;;14.70;99.90;;;;;;7269068;19;20205;-87
2023/09/27 04:51:11;;;;;;;15.80;7.07;;;14.60;99.90;;;;;;7313336;19;20181;-87
2023/09/27 04:53:40;;;;;;;15.30;7.00;;;14.60;99.90;;;;;;7291529;19;20193;-87
2023/09/27 04:56:07;;;;;;;15.23;6.83;;;14.60;99.90;;;;;;7290116;19;20181;-87
2023/09/27 04:58:33;;;;;;;13.80;7.13;;;14.60;99.90;;;;;;7291185;19;20207;-87
2023/09/27 05:01:00;;;;;;;14.07;7.20;;;14.70;99.90;;;;;;7290403;19;20653;-87
2023/09/27 05:03:26;;;;;;;15.90;7.37;;;14.60;99.90;;;;;;7290959;19;20190;-87
2023/09/27 05:05:52;;;;;;;16.37;7.50;;;14.40;99.90;;;;;;7290152;19;20205;-87
2023/09/27 05:08:19;;;;;;;18.80;8.10;;;14.30;99.90;;;;;;7290090;19;20194;-87
2023/09/27 05:10:44;;;;;;;18.20;7.77;;;14.30;99.90;;;;;;7289937;19;20189;-85
2023/09/27 05:13:10;;;;;;;15.03;7.53;;;14.40;99.90;;;;;;7310023;19;20201;-86
2023/09/27 05:15:36;;;;;;;16.50;8.00;;;14.40;99.90;;;;;;7289178;19;20288;-86
2023/09/27 05:18:02;;;;;;;15.57;7.70;;;14.10;99.90;;;;;;7289516;19;20207;-87
2023/09/27 05:20:28;;;;;;;14.50;7.30;;;14.00;99.90;;;;;;7288694;19;20573;-87
2023/09/27 05:22:54;;;;;;;15.27;7.73;;;13.80;99.90;;;;;;7289998;19;20195;-85
2023/09/27 05:25:19;;;;;;;15.10;8.20;;;13.80;99.90;;;;;;7288510;19;20193;-84
2023/09/27 05:27:45;;;;;;;13.53;7.80;;;13.80;99.90;;;;;;7288133;19;20207;-85
2023/09/27 05:30:11;;;;;;;16.23;7.97;;;14.00;99.90;;;;;;7309985;19;20190;-85
2023/09/27 05:32:37;;;;;;;14.50;8.40;;;14.10;99.90;;;;;;7287444;19;20182;-84
2023/09/27 05:35:05;;;;;;;19.97;8.67;;;14.20;99.90;;;;;;7288134;19;20587;-83
2023/09/27 05:37:31;;;;;;;30.20;10.50;;;14.30;99.90;;;;;;7285292;19;20191;-84
2023/09/27 05:39:57;;;;;;;29.57;10.80;;;14.30;99.90;;;;;;7288786;19;20200;-83
2023/09/27 05:42:23;;;;;;;21.83;10.20;;;14.30;99.90;;;;;;7286753;19;20197;-85
2023/09/27 05:44:49;;;;;;;17.53;9.47;;;14.20;99.90;;;;;;7286839;19;20202;-84
2023/09/27 05:47:15;;;;;;;15.83;9.17;;;14.00;99.90;;;;;;7287103;19;20190;-85
2023/09/27 05:49:42;;;;;;;15.30;9.17;;;13.90;99.90;;;;;;7309515;19;20558;-85
2023/09/27 05:52:12;;;;;;;16.80;9.27;;;13.90;99.90;;;;;;7288660;19;20181;-85
2023/09/27 05:54:39;;;;;;;15.63;9.20;;;14.00;99.90;;;;;;7288223;19;20203;-84
2023/09/27 05:57:06;;;;;;;16.97;8.43;;;14.10;99.90;;;;;;7286908;19;20680;-85
2023/09/27 05:59:41;;;;;;;15.33;8.50;;;14.30;99.90;;;;;;7287820;19;20588;-85
2023/09/27 06:02:07;;;;;;;17.53;9.00;;;14.40;99.90;;;;;;7287339;19;20204;-86
2023/09/27 06:04:33;;;;;;;15.03;8.27;;;14.60;99.90;;;;;;7286868;19;20221;-85
2023/09/27 06:06:59;;;;;;;14.43;7.77;;;14.70;99.90;;;;;;7287395;19;20190;-86
2023/09/27 06:09:25;;;;;;;14.90;8.07;;;14.70;99.90;;;;;;7285662;19;20208;-85
2023/09/27 06:11:51;;;;;;;17.20;9.13;;;14.80;99.90;;;;;;7287480;19;20197;-87
2023/09/27 06:14:17;;;;;;;17.23;8.43;;;14.90;99.90;;;;;;7288489;19;20191;-87
2023/09/27 06:16:45;;;;;;;17.17;7.40;;;15.00;99.90;;;;;;7304004;19;20192;-87
2023/09/27 06:19:11;;;;;;;13.50;6.77;;;15.00;99.90;;;;;;7308791;19;20272;-88
2023/09/27 06:21:37;;;;;;;14.53;7.63;;;14.90;99.90;;;;;;7287136;19;20619;-87
2023/09/27 06:24:05;;;;;;;16.20;7.37;;;14.80;99.90;;;;;;7286843;19;20226;-88
2023/09/27 06:26:31;;;;;;;21.27;10.07;;;14.90;99.90;;;;;;7287709;19;20208;-88
2023/09/27 06:28:57;;;;;;;20.23;10.17;;;15.20;99.90;;;;;;7287810;19;20195;-87
2023/09/27 06:31:23;;;;;;;20.70;10.77;;;15.20;99.90;;;;;;7286024;19;20397;-87
2023/09/27 06:33:51;;;;;;;20.37;10.40;;;15.10;99.90;;;;;;7285059;19;20257;-87
2023/09/27 06:36:17;;;;;;;19.83;10.27;;;15.10;99.90;;;;;;7288106;19;20258;-87
2023/09/27 06:38:43;;;;;;;20.97;9.83;;;15.00;99.90;;;;;;7301971;19;20565;-87
2023/09/27 06:41:09;;;;;;;17.40;9.17;;;14.90;99.90;;;;;;7302278;19;20196;-88
2023/09/27 06:43:35;;;;;;;18.30;8.53;;;14.90;99.90;;;;;;7288708;19;20699;-88
2023/09/27 06:46:07;;;;;;;19.43;8.47;;;15.00;99.90;;;;;;7287080;19;20280;-88
2023/09/27 06:48:33;;;;;;;17.30;8.77;;;15.10;99.90;;;;;;7287074;19;20652;-88
2023/09/27 06:50:59;;;;;;;15.93;9.27;;;15.10;99.90;;;;;;7287954;19;20266;-88
2023/09/27 06:53:24;;;;;;;18.83;9.10;;;15.30;99.90;;;;;;7285848;19;20188;-88
2023/09/27 06:55:53;;;;;;;21.77;8.20;;;15.50;99.90;;;;;;7286932;19;20190;-88
2023/09/27 06:58:25;;;;;;;14.80;7.10;;;15.80;99.90;;;;;;7286754;19;20293;-88
2023/09/27 07:00:53;;;;;;;15.87;7.10;;;17.10;99.90;;;;;;7285847;19;20212;-87
2023/09/27 07:03:24;;;;;;;14.20;6.43;;;18.70;99.90;;;;;;7285814;19;20201;-89
2023/09/27 07:05:53;;;;;;;15.43;6.20;;;20.20;99.90;;;;;;7284283;19;20206;-83
2023/09/27 07:08:20;;;;;;;12.80;6.03;;;20.80;99.90;;;;;;7283990;19;20192;-83
2023/09/27 07:10:47;;;;;;;13.50;5.97;;;21.50;99.90;;;;;;7284667;19;20268;-84
2023/09/27 07:13:13;;;;;;;12.20;5.63;;;22.30;99.90;;;;;;7302527;19;20203;-84
2023/09/27 07:15:38;;;;;;;13.23;6.30;;;22.70;99.90;;;;;;7296172;19;20671;-84
2023/09/27 07:18:05;;;;;;;13.20;6.17;;;22.80;99.90;;;;;;7284105;19;20306;-84
2023/09/27 07:20:36;;;;;;;12.97;6.10;;;22.70;99.90;;;;;;7284230;19;20197;-84
2023/09/27 07:23:07;;;;;;;15.00;5.83;;;22.60;99.90;;;;;;7283961;19;20663;-84
2023/09/27 07:25:37;;;;;;;14.90;6.07;;;22.80;99.90;;;;;;7283418;19;20202;-84
2023/09/27 07:28:04;;;;;;;12.47;5.63;;;22.90;99.90;;;;;;7283138;19;20669;-84
2023/09/27 07:30:33;;;;;;;15.43;5.83;;;23.30;99.90;;;;;;7284695;19;20192;-84
2023/09/27 07:33:00;;;;;;;16.23;5.57;;;24.00;99.90;;;;;;7284069;19;20269;-84
2023/09/27 07:35:32;;;;;;;18.33;5.97;;;23.50;99.90;;;;;;7282598;19;20689;-84
2023/09/27 07:37:58;;;;;;;14.17;5.90;;;23.00;99.90;;;;;;7284053;19;20248;-84
2023/09/27 07:40:24;;;;;;;18.30;6.20;;;23.00;99.90;;;;;;7282320;19;20626;-85
2023/09/27 07:42:51;;;;;;;15.17;5.20;;;24.10;99.90;;;;;;7284452;19;20294;-84
2023/09/27 07:45:25;;;;;;;15.43;5.63;;;25.10;99.90;;;;;;7283778;19;20252;-84
2023/09/27 07:47:53;;;;;;;11.90;5.32;;;26.20;99.90;;;;;;7284038;19;20219;-85
2023/09/27 07:50:33;;;;;;;13.85;5.53;;;27.40;99.90;;;;;;7284353;19;20196;-85
2023/09/27 07:53:00;;;;;;;16.42;5.88;;;28.40;99.90;;;;;;7281203;19;20684;-85
2023/09/27 07:55:26;;;;;;;14.35;5.53;;;28.50;99.90;;;;;;7283237;19;20260;-84
2023/09/27 07:57:52;;;;;;;19.50;5.72;;;28.40;99.90;;;;;;7283400;19;20189;-84
2023/09/27 08:00:25;;;;;;;14.68;5.00;;;28.20;99.90;;;;;;7285255;19;20289;-84
2023/09/27 08:02:51;;;;;;;10.10;5.15;;;28.30;99.90;;;;;;7293272;19;20197;-84
2023/09/27 08:05:17;;;;;;;15.50;5.47;;;27.60;99.90;;;;;;7298736;19;20203;-84
2023/09/27 08:07:46;;;;;;;12.07;4.88;;;27.40;99.90;;;;;;7317322;19;20306;-83
2023/09/27 08:10:12;;;;;;;11.13;5.13;;;27.10;99.90;;;;;;7316962;19;20209;-83
2023/09/27 08:12:43;;;;;;;11.65;5.18;;;27.00;99.90;;;;;;7297632;19;20197;-85
2023/09/27 08:15:10;;;;;;;11.50;4.53;;;27.80;99.90;;;;;;7294743;19;20637;-86
2023/09/27 08:17:37;;;;;;;11.73;4.70;;;29.50;99.90;;;;;;7290811;19;20211;-86
2023/09/27 08:20:09;;;;;;;10.18;4.43;;;30.60;99.90;;;;;;7289708;19;20885;-83
2023/09/27 08:22:36;;;;;;;12.50;4.78;;;30.30;99.90;;;;;;7289469;19;20563;-83
2023/09/27 08:25:04;;;;;;;11.77;4.47;;;29.30;99.90;;;;;;7290749;19;20193;-83
2023/09/27 08:27:30;;;;;;;13.00;5.10;;;28.10;99.90;;;;;;7290663;19;20189;-85
2023/09/27 08:29:56;;;;;;;10.45;5.30;;;27.60;99.90;;;;;;7290029;19;20192;-83
2023/09/27 08:32:25;;;;;;;13.27;4.90;;;27.30;99.90;;;;;;7289645;19;20193;-83
2023/09/27 08:34:50;;;;;;;12.35;4.47;;;27.00;99.90;;;;;;7289338;19;20244;-83
2023/09/27 08:37:17;;;;;;;12.43;4.53;;;26.40;99.90;;;;;;7290493;19;20206;-82
2023/09/27 08:39:43;;;;;;;12.32;4.47;;;25.90;99.90;;;;;;7305553;19;20185;-85
2023/09/27 08:42:09;;;;;;;10.55;4.93;;;25.40;99.90;;;;;;7303539;19;20195;-85
2023/09/27 08:44:36;;;;;;;12.70;4.85;;;25.10;99.90;;;;;;7289284;19;20242;-83
2023/09/27 08:47:01;;;;;;;10.90;4.60;;;24.90;99.90;;;;;;7290229;19;20687;-83
2023/09/27 08:49:27;;;;;;;14.48;4.93;;;24.60;99.90;;;;;;7288716;19;20189;-83
2023/09/27 08:51:53;;;;;;;11.13;4.73;;;24.40;99.90;;;;;;7289808;19;20189;-83
2023/09/27 08:54:21;;;;;;;11.10;4.97;;;23.90;99.90;;;;;;7289700;19;20260;-85
2023/09/27 08:56:50;;;;;;;10.30;4.80;;;23.80;99.90;;;;;;7290009;19;20189;-85
2023/09/27 08:59:18;;;;;;;12.30;5.60;;;23.70;99.90;;;;;;7289208;19;20229;-85
2023/09/27 09:01:45;;;;;;;13.50;5.17;;;23.50;99.90;;;;;;7298383;19;21155;-84
2023/09/27 09:04:11;;;;;;;12.73;4.90;;;23.50;99.90;;;;;;7309461;19;20181;-84
2023/09/27 09:06:39;;;;;;;10.07;4.37;;;23.50;99.90;;;;;;7287947;19;20188;-86
2023/09/27 09:09:10;;;;;;;11.13;4.20;;;23.60;99.90;;;;;;7288530;19;20192;-86
2023/09/27 09:11:47;;;;;;;12.40;4.80;;;23.70;99.90;;;;;;7283999;19;20185;-85
2023/09/27 09:14:22;;;;;;;14.43;5.03;;;23.80;99.90;;;;;;7286402;19;20196;-82
2023/09/27 09:16:54;;;;;;;10.87;4.40;;;24.10;99.90;;;;;;7288404;19;20273;-85
2023/09/27 09:19:25;;;;;;;12.80;4.50;;;24.40;99.90;;;;;;7286538;19;20193;-79
2023/09/27 09:21:58;;;;;;;10.87;4.17;;;24.80;99.90;;;;;;7285859;19;20185;-81
2023/09/27 09:24:24;;;;;;;11.80;4.22;;;25.00;99.90;;;;;;7287769;19;20193;-79
2023/09/27 09:27:21;;;;;;;8.38;3.67;;;25.20;99.90;;;;;;7287300;19;20684;-78
2023/09/27 09:29:52;;;;;;;8.57;3.80;;;25.40;99.90;;;;;;7266191;19;20277;-79
2023/09/27 09:32:24;;;;;;;9.02;3.70;;;25.70;99.90;;;;;;7286765;19;20193;-78
2023/09/27 09:34:52;;;;;;;8.93;3.70;;;25.80;99.90;;;;;;7286604;19;20505;-79
2023/09/27 09:37:23;;;;;;;9.43;3.63;;;26.10;99.90;;;;;;7286517;19;20284;-79
2023/09/27 09:39:53;;;;;;;10.13;3.63;;;26.20;99.90;;;;;;7285599;19;20537;-79
2023/09/27 09:42:34;;;;;;;8.52;3.33;;;26.40;99.90;;;;;;7286814;19;20717;-79
2023/09/27 09:45:10;;;;;;;10.32;3.40;;;26.60;99.90;;;;;;7285003;19;20216;-82
2023/09/27 09:47:41;;;;;;;7.82;3.10;;;26.70;99.90;;;;;;7284634;19;20199;-82
2023/09/27 09:50:16;;;;;;;10.07;3.58;;;27.00;99.90;;;;;;7287279;19;20601;-82
2023/09/27 09:52:59;;;;;;;8.52;3.40;;;27.80;99.90;;;;;;7283855;19;20192;-83
2023/09/27 09:55:34;;;;;;;9.05;3.22;;;28.30;99.90;;;;;;7186159;19;2004653;-82
2023/09/27 09:58:36;;;;;;;10.35;3.60;;;27.90;99.90;;;;;;7285997;19;20309;-82
2023/09/27 10:01:03;;;;;;;12.18;4.03;;;27.90;99.90;;;;;;7182640;19;2004713;-82
2023/09/27 10:03:32;;;;;;;7.70;3.35;;;28.20;99.90;;;;;;7285193;19;20200;-82
2023/09/27 10:06:02;;;;;;;10.60;3.30;;;28.20;99.90;;;;;;7285835;19;20563;-82
2023/09/27 10:08:37;;;;;;;8.43;3.50;;;28.20;99.90;;;;;;7286062;19;20203;-82
2023/09/27 10:11:04;;;;;;;12.65;3.25;;;28.70;99.90;;;;;;7286672;19;20664;-83
2023/09/27 10:13:35;;;;;;;8.40;3.47;;;28.90;99.90;;;;;;7286288;19;20564;-83
2023/09/27 10:16:03;;;;;;;9.10;3.50;;;29.20;99.90;;;;;;7288012;19;20197;-82
2023/09/27 10:18:35;;;;;;;8.30;3.50;;;29.50;99.90;;;;;;7284736;19;20225;-83
2023/09/27 10:21:02;;;;;;;7.47;3.15;;;29.60;99.90;;;;;;7289421;19;20545;-82
2023/09/27 10:23:46;;;;;;;9.02;3.10;;;30.40;99.90;;;;;;7288118;19;20521;-83
2023/09/27 10:26:27;;;;;;;10.40;3.45;;;31.00;99.90;;;;;;7289302;19;20192;-82
2023/09/27 10:29:06;;;;;;;7.47;3.15;;;29.90;99.90;;;;;;7191840;19;2004846;-82
2023/09/27 10:31:36;;;;;;;9.25;3.40;;;29.30;99.90;;;;;;7297804;19;20202;-82
2023/09/27 10:34:02;;;;;;;10.05;3.50;;;29.70;99.90;;;;;;7302690;19;20197;-82
2023/09/27 10:36:30;;;;;;;6.88;3.42;;;30.50;99.90;;;;;;7300655;19;20220;-80
2023/09/27 10:38:55;;;;;;;7.15;3.20;;;31.00;99.90;;;;;;7292952;19;20203;-80
2023/09/27 10:41:33;;;;;;;11.82;4.07;;;31.10;99.20;;;;;;7286099;19;20180;-81
2023/09/27 10:44:02;;;;;;;6.88;3.22;;;30.50;99.90;;;;;;7287303;19;20200;-81
2023/09/27 10:46:41;;;;;;;6.97;2.85;;;30.10;99.90;;;;;;7285156;19;20205;-81
2023/09/27 10:49:07;;;;;;;8.43;3.30;;;30.60;99.90;;;;;;7285066;19;20192;-81
2023/09/27 10:51:33;;;;;;;7.88;2.92;;;30.60;99.50;;;;;;7284590;19;20676;-81
2023/09/27 10:53:59;;;;;;;9.10;2.92;;;31.40;98.00;;;;;;7282507;19;20196;-82
2023/09/27 10:56:25;;;;;;;7.85;3.10;;;31.80;96.80;;;;;;7284158;19;20551;-81
2023/09/27 10:58:52;;;;;;;8.32;3.20;;;32.30;94.40;;;;;;7284725;19;20193;-81
2023/09/27 11:01:22;;;;;;;9.60;3.17;;;32.40;94.50;;;;;;7284744;19;20188;-81
2023/09/27 11:03:58;;;;;;;8.15;3.15;;;31.10;93.70;;;;;;7285288;19;20185;-81
2023/09/27 11:06:24;;;;;;;6.63;3.10;;;30.50;96.10;;;;;;7286055;19;20184;-81
2023/09/27 11:08:50;;;;;;;9.80;3.28;;;30.60;96.80;;;;;;7285627;19;20227;-83
2023/09/27 11:11:16;;;;;;;7.38;3.00;;;30.20;98.00;;;;;;7286500;19;20188;-82
2023/09/27 11:13:42;;;;;;;7.40;3.08;;;29.80;98.40;;;;;;7307789;19;20189;-82
2023/09/27 11:16:11;;;;;;;8.35;2.92;;;30.40;98.20;;;;;;7287197;19;21731;-83
2023/09/27 11:18:44;;;;;;;7.88;2.88;;;30.50;98.70;;;;;;7284709;19;20177;-82
2023/09/27 11:21:13;;;;;;;11.10;3.10;;;30.20;97.90;;;;;;7284311;19;20679;-82
2023/09/27 11:23:58;;;;;;;7.65;2.85;;;30.40;98.00;;;;;;7280371;19;20193;-83
2023/09/27 11:26:25;;;;;;;9.05;2.90;;;30.80;95.40;;;;;;7180925;19;2004484;-83
2023/09/27 11:28:58;;;;;;;7.10;2.63;;;31.50;95.90;;;;;;7282083;19;20189;-83
2023/09/27 11:31:26;;;;;;;6.13;2.90;;;32.40;93.70;;;;;;7283008;19;20204;-83
2023/09/27 11:33:52;;;;;;;7.45;3.22;;;31.50;92.40;;;;;;7281566;19;20205;-83
2023/09/27 11:36:18;;;;;;;7.15;2.60;;;31.80;93.40;;;;;;7288996;19;20181;-82
2023/09/27 11:38:49;;;;;;;8.32;3.10;;;31.70;92.50;;;;;;7306067;19;20272;-82
2023/09/27 11:41:16;;;;;;;8.10;2.88;;;30.30;93.50;;;;;;7297431;19;20196;-82
2023/09/27 11:43:43;;;;;;;7.63;3.17;;;30.20;96.00;;;;;;7314361;19;20208;-82
2023/09/27 11:46:09;;;;;;;9.20;3.03;;;30.60;94.90;;;;;;7290558;19;20561;-82
2023/09/27 11:48:35;;;;;;;8.82;3.28;;;31.20;94.70;;;;;;7291221;19;20264;-82
2023/09/27 11:51:02;;;;;;;10.88;2.80;;;30.80;93.30;;;;;;7289153;19;20189;-82
2023/09/27 11:53:28;;;;;;;5.85;2.53;;;30.60;94.30;;;;;;7289827;19;20197;-82
2023/09/27 11:55:55;;;;;;;9.15;2.67;;;30.20;94.90;;;;;;7289272;19;20192;-82
2023/09/27 11:58:22;;;;;;;11.75;3.00;;;30.30;95.90;;;;;;7288401;19;21531;-82
2023/09/27 12:00:48;;;;;;;8.77;2.83;;;30.50;95.30;;;;;;7288852;19;20213;-82
2023/09/27 12:03:14;;;;;;;9.98;2.78;;;30.80;94.70;;;;;;7304720;19;20260;-82
2023/09/27 12:05:40;;;;;;;7.78;2.80;;;31.00;94.00;;;;;;7307883;19;20664;-82
2023/09/27 12:08:07;;;;;;;11.35;2.67;;;31.00;94.70;;;;;;7289641;19;20188;-82
2023/09/27 12:10:33;;;;;;;5.93;2.40;;;31.40;93.60;;;;;;7289329;19;20189;-82
2023/09/27 12:12:59;;;;;;;8.05;2.38;;;31.40;93.40;;;;;;7289632;19;20209;-82
2023/09/27 12:15:25;;;;;;;6.93;2.20;;;31.40;92.50;;;;;;7289873;19;20200;-82
2023/09/27 12:17:50;;;;;;;6.57;2.30;;;31.10;93.00;;;;;;7291237;19;20662;-82
2023/09/27 12:20:17;;;;;;;7.47;2.33;;;30.90;92.20;;;;;;7287785;19;20675;-81
2023/09/27 12:22:42;;;;;;;6.28;2.20;;;30.60;93.00;;;;;;7312629;19;20189;-82
2023/09/27 12:25:09;;;;;;;5.78;2.25;;;30.40;93.40;;;;;;7290519;19;20707;-82
2023/09/27 12:27:35;;;;;;;6.43;2.22;;;30.50;93.50;;;;;;7288258;19;20182;-83
2023/09/27 12:30:01;;;;;;;4.43;2.08;;;30.80;93.40;;;;;;7289278;19;20647;-81
2023/09/27 12:32:26;;;;;;;6.10;2.30;;;31.50;93.00;;;;;;7289252;19;20204;-81
2023/09/27 12:34:52;;;;;;;5.65;2.53;;;32.50;92.40;;;;;;7289014;19;20788;-81
2023/09/27 12:37:18;;;;;;;7.78;2.25;;;33.10;91.00;;;;;;7289513;19;20192;-81
2023/09/27 12:39:47;;;;;;;7.82;2.70;;;33.90;91.90;;;;;;7306407;19;21045;-81
2023/09/27 12:42:13;;;;;;;3.85;2.35;;;34.20;90.10;;;;;;7310254;19;20242;-82